KDLN

Dillon Airport

Dillon, Montana, USA
METAR KDLN 161653Z AUTO 17007KT 10SM CLR M02/M08 A3017 RMK AO2 SLP259 T10221078
Observed Flight Rules
Dec-16 @ 16:53 UTC (38 minutes ago) Visual Flight Rules
Wind Visibility Clouds
170° at 7 knots 10 miles
  • Clear skies
Temperatures Readings
Current -2°C / 28°F
Dewpoint -8°C / 18°F
Humidity 64%
Altimeter 30.17" Hg
Pressure 1025.9 hPa
Elevation 1591
METAR KDLN 161653Z AUTO 17007KT 10SM CLR M02/M08 A3017 RMK AO2 SLP259 T10221078
Observed Flight Rules
Dec-16 @ 16:53 UTC
(38 minutes ago)
VFR
Wind Visibility
170° at 7 knots 10 miles
Clouds
  • Clear skies
Temperature Dewpoint
-2°C / 28°F -8°C / 18°F
Humidity Altimeter Pressure
64% 30.17" Hg 1025.9 hPa